createdAt,value
2018-03-15T00:02:30.204Z,3.73
2018-03-15T00:04:58.509Z,3.64
2018-03-15T00:07:26.812Z,3.80
2018-03-15T00:09:57.041Z,3.81
2018-03-15T00:12:25.351Z,3.69
2018-03-15T00:14:53.685Z,3.57
2018-03-15T00:17:22.299Z,3.79
2018-03-15T00:19:50.608Z,3.83
2018-03-15T00:22:18.980Z,3.86
2018-03-15T00:24:47.785Z,3.75
2018-03-15T00:27:16.096Z,3.63
2018-03-15T00:29:45.225Z,3.64
2018-03-15T00:32:13.550Z,3.75
2018-03-15T00:34:42.383Z,3.70
2018-03-15T00:37:11.556Z,3.51
2018-03-15T00:39:39.901Z,3.42
2018-03-15T00:42:08.240Z,3.63
2018-03-15T00:44:36.572Z,3.60
2018-03-15T00:47:04.872Z,3.38
2018-03-15T00:49:33.246Z,3.51
2018-03-15T00:52:02.318Z,3.42
2018-03-15T00:54:30.625Z,3.31
2018-03-15T00:56:59.843Z,3.34
2018-03-15T00:59:28.160Z,3.32
2018-03-15T01:01:56.470Z,3.20
2018-03-15T01:04:25.600Z,3.13
2018-03-15T01:06:54.826Z,3.19
2018-03-15T01:09:23.151Z,3.35
2018-03-15T01:11:51.511Z,3.19
2018-03-15T01:14:19.832Z,3.26
2018-03-15T01:16:48.144Z,3.31
2018-03-15T01:19:16.581Z,3.19
2018-03-15T01:21:44.887Z,3.10
2018-03-15T01:24:13.196Z,3.28
2018-03-15T01:26:41.549Z,3.33
2018-03-15T01:29:10.451Z,3.12
2018-03-15T01:31:38.762Z,3.06
2018-03-15T01:34:07.511Z,3.29
2018-03-15T01:36:35.858Z,3.11
2018-03-15T01:39:04.180Z,3.16
2018-03-15T01:41:32.549Z,3.09
2018-03-15T01:44:00.856Z,3.05
2018-03-15T01:46:29.928Z,3.02
2018-03-15T01:48:58.982Z,3.09
2018-03-15T01:51:27.294Z,2.94
2018-03-15T01:53:55.608Z,3.10
2018-03-15T01:56:24.395Z,3.06
2018-03-15T01:58:52.720Z,3.08
2018-03-15T02:01:21.036Z,3.10
2018-03-15T02:03:50.139Z,3.04
2018-03-15T02:06:19.212Z,3.14
2018-03-15T02:08:47.552Z,3.19
2018-03-15T02:11:15.976Z,3.18
2018-03-15T02:13:44.997Z,3.01
2018-03-15T02:16:13.341Z,3.16
2018-03-15T02:18:41.661Z,3.02
2018-03-15T02:21:09.972Z,2.77
2018-03-15T02:23:38.336Z,2.85
2018-03-15T02:26:06.650Z,2.85
2018-03-15T02:28:35.241Z,3.06
2018-03-15T02:31:03.751Z,2.99
2018-03-15T02:33:32.078Z,2.75
2018-03-15T02:36:00.427Z,2.79
2018-03-15T02:38:29.164Z,2.87
2018-03-15T02:40:57.847Z,2.76
2018-03-15T02:43:26.264Z,2.50
2018-03-15T02:45:54.801Z,2.76
2018-03-15T02:48:23.157Z,2.87
2018-03-15T02:50:51.629Z,2.77
2018-03-15T02:53:19.949Z,2.74
2018-03-15T02:55:48.253Z,2.71
2018-03-15T02:58:17.363Z,2.73
2018-03-15T03:00:45.677Z,2.80
2018-03-15T03:03:14.709Z,2.57
2018-03-15T03:05:43.845Z,2.55
2018-03-15T03:08:12.160Z,2.58
2018-03-15T03:10:40.493Z,2.65
2018-03-15T03:13:09.621Z,2.64
2018-03-15T03:15:37.933Z,2.75
2018-03-15T03:18:07.009Z,2.86
2018-03-15T03:20:35.474Z,2.73
2018-03-15T03:23:03.804Z,2.69
2018-03-15T03:25:32.114Z,2.70
2018-03-15T03:28:00.455Z,2.78
2018-03-15T03:30:28.778Z,2.76
2018-03-15T03:32:57.089Z,2.68
2018-03-15T03:35:25.512Z,2.46
2018-03-15T03:37:53.837Z,2.73
2018-03-15T03:40:22.148Z,2.66
2018-03-15T03:42:51.120Z,2.53
2018-03-15T03:45:19.437Z,2.60
2018-03-15T03:47:47.749Z,2.58
2018-03-15T03:50:16.084Z,2.67
2018-03-15T03:52:44.435Z,2.51
2018-03-15T03:55:12.758Z,2.44
2018-03-15T03:57:42.532Z,2.52
2018-03-15T04:00:10.904Z,2.74
2018-03-15T04:02:39.702Z,2.77
2018-03-15T04:05:08.783Z,2.84
2018-03-15T04:07:37.324Z,2.70
2018-03-15T04:10:05.634Z,2.62
2018-03-15T04:12:34.100Z,2.77
2018-03-15T04:15:02.429Z,2.91
2018-03-15T04:17:30.505Z,2.68
2018-03-15T04:19:58.861Z,2.77
2018-03-15T04:22:27.948Z,2.94
2018-03-15T04:24:57.328Z,2.94
2018-03-15T04:27:25.686Z,2.83
2018-03-15T04:29:53.992Z,2.85
2018-03-15T04:32:22.300Z,2.71
2018-03-15T04:34:50.808Z,2.79
2018-03-15T04:37:19.572Z,2.81
2018-03-15T04:39:47.888Z,2.96
2018-03-15T04:42:16.264Z,3.11
2018-03-15T04:44:44.593Z,3.04
2018-03-15T04:47:13.285Z,3.00
2018-03-15T04:49:41.627Z,3.04
2018-03-15T04:52:09.949Z,3.12
2018-03-15T04:54:38.290Z,3.12
2018-03-15T04:57:06.599Z,3.01
2018-03-15T04:59:34.914Z,3.14
2018-03-15T05:02:03.324Z,3.02
2018-03-15T05:04:31.840Z,3.05
2018-03-15T05:07:00.186Z,2.97
2018-03-15T05:09:28.566Z,2.99
2018-03-15T05:11:58.232Z,3.05
2018-03-15T05:14:26.581Z,3.02
2018-03-15T05:16:55.312Z,2.94
2018-03-15T05:19:23.693Z,2.93
2018-03-15T05:21:52.066Z,2.93
2018-03-15T05:24:20.828Z,2.99
2018-03-15T05:26:49.152Z,3.01
2018-03-15T05:29:17.510Z,2.92
2018-03-15T05:31:45.860Z,2.80
2018-03-15T05:34:14.203Z,2.95
2018-03-15T05:36:42.575Z,2.85
2018-03-15T05:39:10.930Z,2.99
2018-03-15T05:41:39.267Z,3.02
2018-03-15T05:44:07.639Z,2.99
2018-03-15T05:46:36.749Z,3.07
2018-03-15T05:49:05.124Z,3.08
2018-03-15T05:51:34.000Z,3.11
2018-03-15T05:54:02.339Z,3.26
2018-03-15T05:56:30.672Z,3.26
2018-03-15T05:58:59.045Z,3.34
2018-03-15T06:01:27.382Z,3.42
2018-03-15T06:03:55.708Z,3.42
2018-03-15T06:06:24.437Z,3.48
2018-03-15T06:08:52.770Z,3.52
2018-03-15T06:11:21.100Z,3.54
2018-03-15T06:13:49.532Z,3.56
2018-03-15T06:16:17.925Z,3.59
2018-03-15T06:18:46.320Z,3.59
2018-03-15T06:21:14.968Z,3.62
2018-03-15T06:23:43.464Z,3.65
2018-03-15T06:26:11.839Z,3.67
2018-03-15T06:28:40.906Z,3.74
2018-03-15T06:31:09.674Z,3.81
2018-03-15T06:33:38.018Z,3.91
2018-03-15T06:36:06.361Z,3.95
2018-03-15T06:38:35.516Z,4.07
2018-03-15T06:41:03.880Z,4.22
2018-03-15T06:43:32.222Z,4.20
2018-03-15T06:46:00.744Z,4.26
2018-03-15T06:48:29.094Z,4.29
2018-03-15T06:50:57.454Z,4.38
2018-03-15T06:53:25.847Z,4.54
2018-03-15T06:55:54.649Z,4.76
2018-03-15T06:58:22.980Z,4.78
2018-03-15T07:00:51.385Z,4.72
2018-03-15T07:03:19.725Z,4.86
2018-03-15T07:05:49.444Z,4.95
2018-03-15T07:08:18.421Z,4.88
2018-03-15T07:10:47.499Z,4.90
2018-03-15T07:13:15.831Z,4.93
2018-03-15T07:15:44.920Z,5.13
2018-03-15T07:18:13.477Z,5.11
2018-03-15T07:20:42.201Z,5.11
2018-03-15T07:23:10.516Z,5.22
2018-03-15T07:25:38.897Z,5.13
2018-03-15T07:28:07.221Z,5.32
2018-03-15T07:30:35.700Z,5.39
2018-03-15T07:33:04.188Z,5.42
2018-03-15T07:35:32.667Z,5.56
2018-03-15T07:38:01.633Z,5.54
2018-03-15T07:40:30.112Z,5.65
2018-03-15T07:42:58.457Z,5.67
2018-03-15T07:45:26.799Z,5.81
2018-03-15T07:47:55.185Z,5.89
2018-03-15T07:50:24.307Z,5.66
2018-03-15T07:52:52.650Z,5.84
2018-03-15T07:55:21.814Z,6.33
2018-03-15T07:57:50.166Z,6.16
2018-03-15T08:00:18.503Z,6.15
2018-03-15T08:02:46.982Z,6.46
2018-03-15T08:05:15.335Z,6.56
2018-03-15T08:07:43.739Z,6.53
2018-03-15T08:10:12.117Z,6.78
2018-03-15T08:12:41.217Z,7.28
2018-03-15T08:15:10.316Z,7.30
2018-03-15T08:17:39.485Z,7.24
2018-03-15T08:20:08.296Z,7.07
2018-03-15T08:22:36.628Z,7.53
2018-03-15T08:25:05.582Z,7.83
2018-03-15T08:27:34.045Z,7.46
2018-03-15T08:30:02.956Z,7.42
2018-03-15T08:32:31.279Z,7.66
2018-03-15T08:34:59.905Z,7.70
2018-03-15T08:37:28.496Z,7.57
2018-03-15T08:39:57.584Z,7.98
2018-03-15T08:42:26.781Z,8.50
2018-03-15T08:44:55.108Z,8.10
2018-03-15T08:47:23.424Z,7.59
2018-03-15T08:49:51.810Z,7.51
2018-03-15T08:52:20.917Z,7.36
2018-03-15T08:54:49.308Z,7.46
2018-03-15T08:57:18.464Z,7.56
2018-03-15T08:59:46.764Z,7.89
2018-03-15T09:02:15.181Z,9.03
2018-03-15T09:04:44.264Z,9.43
2018-03-15T09:07:13.961Z,10.93
2018-03-15T09:09:42.189Z,10.97
2018-03-15T09:12:10.576Z,10.50
2018-03-15T09:14:38.977Z,10.02
2018-03-15T09:17:07.453Z,10.38
2018-03-15T09:19:35.791Z,9.80
2018-03-15T09:22:04.757Z,11.07
2018-03-15T09:24:33.086Z,10.62
2018-03-15T09:27:01.451Z,10.77
2018-03-15T09:29:29.967Z,11.39
2018-03-15T09:31:58.315Z,10.56
2018-03-15T09:34:26.786Z,9.84
2018-03-15T09:36:55.062Z,10.85
2018-03-15T09:39:23.413Z,12.31
2018-03-15T09:41:51.821Z,10.74
2018-03-15T09:44:20.268Z,10.61
2018-03-15T09:46:48.604Z,11.90
2018-03-15T09:49:17.013Z,12.93
2018-03-15T09:51:45.347Z,12.16
2018-03-15T09:54:13.688Z,11.52
2018-03-15T09:56:42.217Z,13.09
2018-03-15T09:59:10.710Z,14.47
2018-03-15T10:01:39.084Z,14.58
2018-03-15T10:04:07.584Z,13.92
2018-03-15T10:06:36.679Z,13.71
2018-03-15T10:09:06.471Z,12.97
2018-03-15T10:11:34.866Z,12.55
2018-03-15T10:14:03.360Z,12.88
2018-03-15T10:16:32.504Z,12.49
2018-03-15T10:19:01.136Z,12.16
2018-03-15T10:21:29.616Z,11.64
2018-03-15T10:23:58.724Z,11.81
2018-03-15T10:26:27.067Z,13.23
2018-03-15T10:28:56.002Z,12.74
2018-03-15T10:31:24.368Z,12.89
2018-03-15T10:33:53.637Z,12.95
2018-03-15T10:36:22.013Z,11.87
2018-03-15T10:38:50.351Z,11.80
2018-03-15T10:41:18.806Z,12.67
2018-03-15T10:43:47.191Z,11.59
2018-03-15T10:46:15.533Z,11.34
2018-03-15T10:48:43.927Z,11.59
2018-03-15T10:51:13.406Z,12.21
2018-03-15T10:53:41.740Z,12.85
2018-03-15T10:56:10.279Z,11.68
2018-03-15T10:58:38.672Z,12.04
2018-03-15T11:01:07.776Z,12.61
2018-03-15T11:03:50.027Z,13.73
2018-03-15T11:06:23.892Z,15.55
2018-03-15T11:08:57.656Z,15.34
2018-03-15T11:11:26.115Z,16.19
2018-03-15T11:13:54.496Z,16.01
2018-03-15T11:16:22.836Z,16.21
2018-03-15T11:18:52.181Z,15.03
2018-03-15T11:21:20.577Z,13.18
2018-03-15T11:23:49.015Z,12.70
2018-03-15T11:26:17.363Z,12.08
2018-03-15T11:28:46.568Z,12.20
2018-03-15T11:31:15.752Z,12.35
2018-03-15T11:33:44.088Z,13.06
2018-03-15T11:36:12.493Z,12.97
2018-03-15T11:38:41.171Z,14.07
2018-03-15T11:41:09.509Z,16.12
2018-03-15T11:43:37.843Z,16.31
2018-03-15T11:46:06.233Z,17.49
2018-03-15T11:48:34.568Z,18.42
2018-03-15T11:51:05.064Z,20.10
2018-03-15T11:53:33.465Z,20.59
2018-03-15T11:56:02.112Z,19.27
2018-03-15T11:58:30.453Z,21.22
2018-03-15T12:00:58.832Z,20.90
2018-03-15T12:03:27.802Z,19.08
2018-03-15T12:05:56.715Z,19.90
2018-03-15T12:08:27.041Z,21.73
2018-03-15T12:10:55.384Z,20.23
2018-03-15T12:13:23.724Z,18.48
2018-03-15T12:15:52.117Z,17.18
2018-03-15T12:18:21.216Z,16.73
2018-03-15T12:20:49.544Z,15.44
2018-03-15T12:23:18.813Z,14.90
2018-03-15T12:25:47.132Z,15.30
2018-03-15T12:28:15.460Z,16.38
2018-03-15T12:30:43.853Z,16.31
2018-03-15T12:33:12.300Z,16.67
2018-03-15T12:35:40.616Z,16.13
2018-03-15T12:38:08.977Z,14.48
2018-03-15T12:40:37.301Z,15.76
2018-03-15T12:43:05.626Z,15.80
2018-03-15T12:45:34.771Z,15.86
2018-03-15T12:48:03.099Z,16.33
2018-03-15T12:50:32.192Z,16.28
2018-03-15T12:53:00.555Z,14.24
2018-03-15T12:55:28.876Z,14.00
2018-03-15T12:57:57.662Z,14.40
2018-03-15T13:00:26.417Z,14.68
2018-03-15T13:02:54.752Z,14.28
2018-03-15T13:05:23.097Z,13.84
2018-03-15T13:07:51.464Z,13.87
2018-03-15T13:10:19.792Z,14.50
2018-03-15T13:15:22.709Z,14.19
2018-03-15T13:17:51.037Z,13.55
2018-03-15T13:20:19.454Z,12.83
2018-03-15T13:22:47.829Z,12.95
2018-03-15T13:25:17.064Z,13.21
2018-03-15T13:27:47.389Z,13.48
2018-03-15T13:30:15.802Z,13.51
2018-03-15T13:32:44.134Z,13.06
2018-03-15T13:35:12.465Z,12.43
2018-03-15T13:37:41.037Z,12.26
2018-03-15T13:40:09.353Z,12.50
2018-03-15T13:42:37.681Z,12.87
2018-03-15T13:45:06.073Z,12.57
2018-03-15T13:47:35.158Z,12.46
2018-03-15T13:50:04.250Z,12.61
2018-03-15T13:52:33.525Z,12.63
2018-03-15T13:55:01.841Z,12.41
2018-03-15T13:57:30.177Z,12.10
2018-03-15T13:59:59.307Z,12.21
2018-03-15T14:02:28.180Z,12.35
2018-03-15T14:04:58.220Z,12.21
2018-03-15T14:07:27.645Z,11.94
2018-03-15T14:09:55.960Z,12.03
2018-03-15T14:12:24.279Z,11.95
2018-03-15T14:14:52.856Z,11.88
2018-03-15T14:17:21.274Z,11.94
2018-03-15T14:19:50.952Z,11.88
2018-03-15T14:22:19.359Z,11.67
2018-03-15T14:24:47.881Z,11.61
2018-03-15T14:27:16.239Z,11.74
2018-03-15T14:29:44.673Z,11.80
2018-03-15T14:32:13.793Z,11.80
2018-03-15T14:34:43.309Z,11.59
2018-03-15T14:37:12.400Z,11.59
2018-03-15T14:39:40.722Z,11.63
2018-03-15T14:42:11.060Z,11.65
2018-03-15T14:44:39.452Z,11.77
2018-03-15T15:26:06.213Z,10.80
2018-03-15T15:28:34.689Z,10.93
2018-03-15T15:31:03.945Z,11.01
2018-03-15T15:33:32.410Z,11.09
2018-03-15T15:36:01.705Z,11.18
2018-03-15T15:38:30.889Z,11.25
2018-03-15T15:40:59.305Z,11.27
2018-03-15T15:43:27.698Z,11.23
2018-03-15T15:45:56.888Z,11.15
2018-03-15T15:48:25.337Z,11.00
2018-03-15T15:50:53.718Z,10.85
2018-03-15T15:53:22.113Z,10.76
2018-03-15T15:55:50.616Z,10.68
2018-03-15T15:58:19.033Z,10.61
2018-03-15T16:00:47.434Z,10.68
2018-03-15T16:03:15.855Z,10.76
2018-03-15T16:05:45.502Z,10.77
2018-03-15T16:08:35.638Z,10.63
2018-03-15T16:11:04.084Z,10.70
2018-03-15T16:13:36.572Z,10.80
2018-03-15T16:16:05.885Z,10.88
2018-03-15T16:18:35.876Z,10.93
2018-03-15T16:21:04.589Z,11.02
2018-03-15T16:23:33.001Z,11.10
2018-03-15T16:26:01.560Z,11.22
2018-03-15T16:28:30.984Z,11.28
2018-03-15T16:31:00.253Z,11.36
2018-03-15T16:33:35.079Z,11.40
2018-03-15T16:36:04.316Z,11.33
2018-03-15T16:38:32.909Z,11.38
2018-03-15T16:41:01.348Z,11.36
2018-03-15T16:43:29.753Z,11.28
2018-03-15T16:45:58.228Z,11.36
2018-03-15T16:48:26.654Z,11.45
2018-03-15T16:50:55.783Z,11.34
2018-03-15T16:53:24.154Z,11.31
2018-03-15T16:55:52.630Z,11.34
2018-03-15T16:58:21.231Z,11.35
2018-03-15T17:00:49.614Z,11.31
2018-03-15T17:03:18.922Z,11.21
2018-03-15T17:05:47.315Z,11.10
2018-03-15T17:08:15.710Z,11.01
2018-03-15T17:10:44.288Z,10.94
2018-03-15T17:13:12.679Z,10.91
2018-03-15T17:15:41.023Z,10.86
2018-03-15T17:18:10.277Z,10.82
2018-03-15T17:20:38.621Z,10.80
2018-03-15T17:23:06.957Z,10.71
2018-03-15T17:25:35.371Z,10.69
2018-03-15T17:28:04.101Z,10.66
2018-03-15T17:30:32.547Z,10.65
2018-03-15T17:33:00.995Z,10.60
2018-03-15T17:35:29.367Z,10.52
2018-03-15T17:37:57.744Z,10.49
2018-03-15T17:40:26.233Z,10.41
2018-03-15T17:42:54.776Z,10.39
2018-03-15T17:45:23.940Z,10.32
2018-03-15T17:47:52.390Z,10.16
2018-03-15T17:50:20.784Z,10.06
2018-03-15T17:52:49.205Z,10.00
2018-03-15T17:55:17.652Z,10.00
2018-03-15T17:58:06.052Z,10.04
2018-03-15T18:00:34.521Z,9.96
2018-03-15T18:03:03.046Z,9.86
2018-03-15T18:05:32.237Z,9.81
2018-03-15T18:08:06.627Z,9.76
2018-03-15T18:10:35.118Z,9.72
2018-03-15T18:16:04.507Z,9.59
2018-03-15T18:18:33.015Z,9.62
2018-03-15T18:21:03.447Z,9.62
2018-03-15T18:23:31.916Z,9.60
2018-03-15T18:26:00.264Z,9.49
2018-03-15T18:28:28.585Z,9.44
2018-03-15T18:30:57.461Z,9.46
2018-03-15T18:33:26.473Z,9.45
2018-03-15T18:35:54.967Z,9.45
2018-03-15T18:38:23.901Z,9.48
2018-03-15T18:40:52.309Z,9.41
2018-03-15T18:43:20.621Z,9.40
2018-03-15T18:45:49.361Z,9.36
2018-03-15T18:48:17.677Z,9.31
2018-03-15T18:50:46.144Z,9.36
2018-03-15T18:53:14.709Z,9.27
2018-03-15T18:55:46.067Z,9.37
2018-03-15T18:58:14.596Z,9.40
2018-03-15T19:00:42.904Z,9.39
2018-03-15T19:03:11.223Z,9.33
2018-03-15T19:05:39.894Z,9.19
2018-03-15T19:08:08.250Z,9.10
2018-03-15T19:10:36.573Z,9.00
2018-03-15T19:13:05.001Z,8.95
2018-03-15T19:15:33.584Z,9.01
2018-03-15T19:18:01.896Z,8.98
2018-03-15T19:20:30.350Z,9.01
2018-03-15T19:22:58.781Z,8.93
2018-03-15T19:25:27.272Z,8.93
2018-03-15T19:27:55.584Z,9.01
2018-03-15T19:30:24.710Z,8.92
2018-03-15T19:32:53.910Z,8.86
2018-03-15T19:35:23.745Z,8.82
2018-03-15T19:37:52.837Z,8.75
2018-03-15T19:40:22.140Z,8.63
2018-03-15T19:42:50.948Z,8.70
2018-03-15T19:45:20.124Z,8.63
2018-03-15T19:47:48.493Z,8.44
2018-03-15T19:50:17.601Z,8.41
2018-03-15T19:52:46.455Z,8.33
2018-03-15T19:55:14.816Z,8.26
2018-03-15T19:57:43.144Z,8.29
2018-03-15T20:00:11.457Z,8.37
2018-03-15T20:02:41.949Z,8.51
2018-03-15T20:05:10.445Z,8.50
2018-03-15T20:07:38.993Z,8.45
2018-03-15T20:10:08.104Z,8.58
2018-03-15T20:12:36.411Z,8.59
2018-03-15T20:15:04.919Z,8.65
2018-03-15T20:17:33.444Z,8.69
2018-03-15T20:20:03.371Z,8.71
2018-03-15T20:35:59.314Z,8.85
2018-03-15T20:38:27.656Z,8.85
2018-03-15T20:41:01.544Z,8.83
2018-03-15T20:43:29.878Z,8.83
2018-03-15T20:46:03.852Z,8.90
2018-03-15T20:48:37.729Z,8.91
2018-03-15T20:51:06.885Z,8.88
2018-03-15T20:53:35.233Z,8.89
2018-03-15T20:56:03.536Z,8.92
2018-03-15T20:58:31.909Z,8.90
2018-03-15T21:01:00.630Z,8.87
2018-03-15T21:03:28.943Z,8.90
2018-03-15T21:05:57.887Z,8.83
2018-03-15T21:08:26.604Z,8.91
2018-03-15T21:10:54.912Z,8.86
2018-03-15T21:13:23.228Z,8.83
2018-03-15T21:15:51.561Z,8.81
2018-03-15T21:18:20.645Z,8.81
2018-03-15T21:20:49.776Z,8.86
2018-03-15T21:23:18.088Z,8.86
2018-03-15T21:25:46.792Z,8.82
2018-03-15T21:28:15.212Z,8.82
2018-03-15T21:30:43.656Z,8.75
2018-03-15T21:33:12.056Z,8.70
2018-03-15T21:35:40.498Z,8.74
2018-03-15T21:38:08.897Z,8.82
2018-03-15T21:40:37.205Z,8.88
2018-03-15T21:43:05.567Z,8.94
2018-03-15T21:45:33.882Z,8.97
2018-03-15T21:48:02.188Z,9.01
2018-03-15T21:50:30.557Z,9.05
2018-03-15T21:52:58.938Z,8.92
2018-03-15T21:55:27.907Z,8.87
2018-03-15T21:57:57.049Z,8.79
2018-03-15T22:00:27.081Z,8.63
2018-03-15T22:02:57.142Z,8.64
2018-03-15T22:07:58.986Z,8.54
2018-03-15T22:10:27.428Z,8.58
2018-03-15T22:12:55.872Z,8.56
2018-03-15T22:15:24.292Z,8.55
2018-03-15T22:17:52.804Z,8.54
2018-03-15T22:20:21.986Z,8.61
2018-03-15T22:22:50.487Z,8.58
2018-03-15T22:25:18.893Z,8.62
2018-03-15T22:27:47.682Z,8.58
2018-03-15T22:30:16.738Z,8.63
2018-03-15T22:32:45.137Z,8.61
2018-03-15T22:35:13.618Z,8.64
2018-03-15T22:37:45.668Z,8.67
2018-03-15T22:40:14.023Z,8.65
2018-03-15T22:42:42.377Z,8.49
2018-03-15T22:45:10.802Z,8.45
2018-03-15T22:47:39.919Z,8.45
2018-03-15T22:50:08.331Z,8.48
2018-03-15T22:52:37.166Z,8.49
2018-03-15T22:55:05.555Z,8.33
2018-03-15T22:57:33.882Z,8.36
2018-03-15T23:00:02.295Z,8.40
2018-03-15T23:02:30.839Z,8.45
2018-03-15T23:04:59.246Z,8.49
2018-03-15T23:07:27.600Z,8.42
2018-03-15T23:09:57.482Z,8.40
2018-03-15T23:12:26.540Z,8.36
2018-03-15T23:14:54.883Z,8.25
2018-03-15T23:17:23.290Z,8.24
2018-03-15T23:19:51.646Z,8.24
2018-03-15T23:22:20.011Z,8.18
2018-03-15T23:24:48.386Z,8.08
2018-03-15T23:27:16.899Z,7.97
2018-03-15T23:29:45.256Z,7.96
2018-03-15T23:32:13.633Z,7.89
2018-03-15T23:34:41.985Z,7.83
2018-03-15T23:37:10.356Z,7.91
2018-03-15T23:39:40.134Z,7.95
2018-03-15T23:42:08.486Z,7.90
2018-03-15T23:44:36.849Z,7.96
2018-03-15T23:47:05.258Z,7.96
2018-03-15T23:49:33.603Z,7.93
2018-03-15T23:52:03.383Z,7.98
2018-03-15T23:54:31.736Z,7.88
2018-03-15T23:57:00.091Z,7.85
2018-03-15T23:59:28.482Z,7.90
